sensor_id;sensor_type;location;lat;lon;timestamp;P1;durP1;ratioP1;P2;durP2;ratioP2
48215;SDS011;34005;48.844;10.098;2023-09-19T00:00:56;1.17;;;0.65;;
48215;SDS011;34005;48.844;10.098;2023-09-19T00:03:25;0.57;;;0.57;;
48215;SDS011;34005;48.844;10.098;2023-09-19T00:05:55;2.40;;;0.80;;
48215;SDS011;34005;48.844;10.098;2023-09-19T00:08:22;1.08;;;0.65;;
48215;SDS011;34005;48.844;10.098;2023-09-19T00:10:50;0.73;;;0.40;;
48215;SDS011;34005;48.844;10.098;2023-09-19T00:13:19;3.05;;;1.08;;
48215;SDS011;34005;48.844;10.098;2023-09-19T00:15:47;2.03;;;0.52;;
48215;SDS011;34005;48.844;10.098;2023-09-19T00:18:16;1.95;;;0.68;;
48215;SDS011;34005;48.844;10.098;2023-09-19T00:20:48;0.82;;;0.40;;
48215;SDS011;34005;48.844;10.098;2023-09-19T00:23:17;0.95;;;0.40;;
48215;SDS011;34005;48.844;10.098;2023-09-19T00:25:45;1.25;;;0.52;;
48215;SDS011;34005;48.844;10.098;2023-09-19T00:28:13;1.95;;;0.65;;
48215;SDS011;34005;48.844;10.098;2023-09-19T00:30:42;0.60;;;0.50;;
48215;SDS011;34005;48.844;10.098;2023-09-19T00:33:10;1.65;;;0.52;;
48215;SDS011;34005;48.844;10.098;2023-09-19T00:38:15;1.17;;;0.57;;
48215;SDS011;34005;48.844;10.098;2023-09-19T00:40:44;0.93;;;0.73;;
48215;SDS011;34005;48.844;10.098;2023-09-19T00:43:12;0.60;;;0.40;;
48215;SDS011;34005;48.844;10.098;2023-09-19T00:45:42;2.08;;;0.50;;
48215;SDS011;34005;48.844;10.098;2023-09-19T00:48:10;3.17;;;0.68;;
48215;SDS011;34005;48.844;10.098;2023-09-19T00:50:39;0.80;;;0.45;;
48215;SDS011;34005;48.844;10.098;2023-09-19T00:53:12;0.70;;;0.30;;
48215;SDS011;34005;48.844;10.098;2023-09-19T00:55:41;1.07;;;0.57;;
48215;SDS011;34005;48.844;10.098;2023-09-19T00:58:10;0.65;;;0.40;;
48215;SDS011;34005;48.844;10.098;2023-09-19T01:00:38;3.15;;;0.75;;
48215;SDS011;34005;48.844;10.098;2023-09-19T01:03:10;3.42;;;0.80;;
48215;SDS011;34005;48.844;10.098;2023-09-19T01:05:40;0.43;;;0.43;;
48215;SDS011;34005;48.844;10.098;2023-09-19T01:08:08;2.55;;;0.50;;
48215;SDS011;34005;48.844;10.098;2023-09-19T01:10:39;1.08;;;0.70;;
48215;SDS011;34005;48.844;10.098;2023-09-19T01:13:17;0.73;;;0.40;;
48215;SDS011;34005;48.844;10.098;2023-09-19T01:15:51;0.90;;;0.68;;
48215;SDS011;34005;48.844;10.098;2023-09-19T01:18:27;1.48;;;0.50;;
48215;SDS011;34005;48.844;10.098;2023-09-19T01:21:05;1.75;;;0.40;;
48215;SDS011;34005;48.844;10.098;2023-09-19T01:23:41;1.10;;;0.40;;
48215;SDS011;34005;48.844;10.098;2023-09-19T01:26:30;0.95;;;0.45;;
48215;SDS011;34005;48.844;10.098;2023-09-19T01:29:17;0.45;;;0.45;;
48215;SDS011;34005;48.844;10.098;2023-09-19T01:32:01;1.63;;;0.60;;
48215;SDS011;34005;48.844;10.098;2023-09-19T01:37:23;0.45;;;0.38;;
48215;SDS011;34005;48.844;10.098;2023-09-19T01:39:53;1.85;;;0.25;;
48215;SDS011;34005;48.844;10.098;2023-09-19T01:42:24;1.13;;;0.50;;
48215;SDS011;34005;48.844;10.098;2023-09-19T01:44:59;1.80;;;0.30;;
48215;SDS011;34005;48.844;10.098;2023-09-19T01:47:35;2.25;;;0.60;;
48215;SDS011;34005;48.844;10.098;2023-09-19T01:50:14;0.47;;;0.35;;
48215;SDS011;34005;48.844;10.098;2023-09-19T01:52:49;1.27;;;0.50;;
48215;SDS011;34005;48.844;10.098;2023-09-19T01:55:24;0.40;;;0.40;;
48215;SDS011;34005;48.844;10.098;2023-09-19T01:57:57;1.77;;;0.45;;
48215;SDS011;34005;48.844;10.098;2023-09-19T02:00:30;0.82;;;0.40;;
48215;SDS011;34005;48.844;10.098;2023-09-19T02:03:03;0.70;;;0.30;;
48215;SDS011;34005;48.844;10.098;2023-09-19T02:05:31;0.68;;;0.30;;
48215;SDS011;34005;48.844;10.098;2023-09-19T02:07:59;0.70;;;0.43;;
48215;SDS011;34005;48.844;10.098;2023-09-19T02:10:27;0.88;;;0.45;;
48215;SDS011;34005;48.844;10.098;2023-09-19T02:12:54;1.55;;;0.38;;
48215;SDS011;34005;48.844;10.098;2023-09-19T02:15:22;0.75;;;0.40;;
48215;SDS011;34005;48.844;10.098;2023-09-19T02:17:50;0.45;;;0.30;;
48215;SDS011;34005;48.844;10.098;2023-09-19T02:20:20;0.20;;;0.20;;
48215;SDS011;34005;48.844;10.098;2023-09-19T02:22:48;1.00;;;0.40;;
48215;SDS011;34005;48.844;10.098;2023-09-19T02:25:16;0.60;;;0.20;;
48215;SDS011;34005;48.844;10.098;2023-09-19T02:27:45;0.22;;;0.22;;
48215;SDS011;34005;48.844;10.098;2023-09-19T02:30:13;0.25;;;0.25;;
48215;SDS011;34005;48.844;10.098;2023-09-19T02:32:42;0.20;;;0.20;;
48215;SDS011;34005;48.844;10.098;2023-09-19T02:35:09;0.35;;;0.20;;
48215;SDS011;34005;48.844;10.098;2023-09-19T02:37:39;1.02;;;0.43;;
48215;SDS011;34005;48.844;10.098;2023-09-19T02:40:07;0.50;;;0.30;;
48215;SDS011;34005;48.844;10.098;2023-09-19T02:42:45;0.43;;;0.30;;
48215;SDS011;34005;48.844;10.098;2023-09-19T02:45:15;0.52;;;0.20;;
48215;SDS011;34005;48.844;10.098;2023-09-19T02:47:45;0.40;;;0.20;;
48215;SDS011;34005;48.844;10.098;2023-09-19T02:50:13;0.60;;;0.30;;
48215;SDS011;34005;48.844;10.098;2023-09-19T02:52:43;0.57;;;0.30;;
48215;SDS011;34005;48.844;10.098;2023-09-19T02:55:13;0.75;;;0.50;;
48215;SDS011;34005;48.844;10.098;2023-09-19T02:57:45;1.00;;;0.35;;
48215;SDS011;34005;48.844;10.098;2023-09-19T03:00:13;0.30;;;0.20;;
48215;SDS011;34005;48.844;10.098;2023-09-19T03:02:42;0.55;;;0.28;;
48215;SDS011;34005;48.844;10.098;2023-09-19T03:05:11;0.28;;;0.28;;
48215;SDS011;34005;48.844;10.098;2023-09-19T03:07:38;0.70;;;0.30;;
48215;SDS011;34005;48.844;10.098;2023-09-19T03:10:08;1.40;;;1.25;;
48215;SDS011;34005;48.844;10.098;2023-09-19T03:12:36;1.30;;;0.57;;
48215;SDS011;34005;48.844;10.098;2023-09-19T03:15:04;0.88;;;0.60;;
48215;SDS011;34005;48.844;10.098;2023-09-19T03:17:34;0.50;;;0.40;;
48215;SDS011;34005;48.844;10.098;2023-09-19T03:20:03;0.73;;;0.35;;
48215;SDS011;34005;48.844;10.098;2023-09-19T03:22:33;2.03;;;0.65;;
48215;SDS011;34005;48.844;10.098;2023-09-19T03:25:01;1.40;;;0.35;;
48215;SDS011;34005;48.844;10.098;2023-09-19T03:27:31;0.28;;;0.25;;
48215;SDS011;34005;48.844;10.098;2023-09-19T03:29:59;0.75;;;0.50;;
48215;SDS011;34005;48.844;10.098;2023-09-19T03:32:26;2.45;;;0.60;;
48215;SDS011;34005;48.844;10.098;2023-09-19T03:34:54;1.05;;;0.70;;
48215;SDS011;34005;48.844;10.098;2023-09-19T03:37:24;1.02;;;0.50;;
48215;SDS011;34005;48.844;10.098;2023-09-19T03:39:52;0.32;;;0.30;;
48215;SDS011;34005;48.844;10.098;2023-09-19T03:42:20;1.02;;;0.50;;
48215;SDS011;34005;48.844;10.098;2023-09-19T03:44:53;2.22;;;0.32;;
48215;SDS011;34005;48.844;10.098;2023-09-19T03:47:21;0.65;;;0.47;;
48215;SDS011;34005;48.844;10.098;2023-09-19T03:49:49;1.65;;;0.45;;
48215;SDS011;34005;48.844;10.098;2023-09-19T03:52:16;0.98;;;0.52;;
48215;SDS011;34005;48.844;10.098;2023-09-19T03:54:44;1.02;;;0.43;;
48215;SDS011;34005;48.844;10.098;2023-09-19T03:57:12;1.40;;;0.50;;
48215;SDS011;34005;48.844;10.098;2023-09-19T03:59:42;2.15;;;1.15;;
48215;SDS011;34005;48.844;10.098;2023-09-19T04:02:11;0.70;;;0.70;;
48215;SDS011;34005;48.844;10.098;2023-09-19T04:04:48;0.63;;;0.43;;
48215;SDS011;34005;48.844;10.098;2023-09-19T04:07:16;1.10;;;0.43;;
48215;SDS011;34005;48.844;10.098;2023-09-19T04:09:45;1.52;;;0.55;;
48215;SDS011;34005;48.844;10.098;2023-09-19T04:12:12;1.08;;;0.60;;
48215;SDS011;34005;48.844;10.098;2023-09-19T04:14:43;0.50;;;0.50;;
48215;SDS011;34005;48.844;10.098;2023-09-19T04:17:12;3.22;;;0.77;;
48215;SDS011;34005;48.844;10.098;2023-09-19T04:19:40;2.85;;;0.57;;
48215;SDS011;34005;48.844;10.098;2023-09-19T04:22:08;0.90;;;0.50;;
48215;SDS011;34005;48.844;10.098;2023-09-19T04:24:37;1.58;;;1.08;;
48215;SDS011;34005;48.844;10.098;2023-09-19T04:27:05;2.58;;;1.40;;
48215;SDS011;34005;48.844;10.098;2023-09-19T04:29:33;1.20;;;0.60;;
48215;SDS011;34005;48.844;10.098;2023-09-19T04:32:01;1.10;;;0.60;;
48215;SDS011;34005;48.844;10.098;2023-09-19T04:34:32;1.85;;;0.70;;
48215;SDS011;34005;48.844;10.098;2023-09-19T04:37:00;0.40;;;0.40;;
48215;SDS011;34005;48.844;10.098;2023-09-19T04:39:29;0.70;;;0.45;;
48215;SDS011;34005;48.844;10.098;2023-09-19T04:41:57;1.35;;;0.52;;
48215;SDS011;34005;48.844;10.098;2023-09-19T04:44:25;0.60;;;0.45;;
48215;SDS011;34005;48.844;10.098;2023-09-19T04:46:54;1.70;;;0.60;;
48215;SDS011;34005;48.844;10.098;2023-09-19T04:49:22;1.65;;;0.60;;
48215;SDS011;34005;48.844;10.098;2023-09-19T04:51:51;1.35;;;0.63;;
48215;SDS011;34005;48.844;10.098;2023-09-19T04:54:19;0.70;;;0.70;;
48215;SDS011;34005;48.844;10.098;2023-09-19T04:56:48;2.60;;;0.70;;
48215;SDS011;34005;48.844;10.098;2023-09-19T04:59:16;0.55;;;0.55;;
48215;SDS011;34005;48.844;10.098;2023-09-19T05:01:43;1.05;;;0.60;;
48215;SDS011;34005;48.844;10.098;2023-09-19T05:04:11;2.08;;;0.90;;
48215;SDS011;34005;48.844;10.098;2023-09-19T05:06:39;1.92;;;0.50;;
48215;SDS011;34005;48.844;10.098;2023-09-19T05:09:08;0.77;;;0.70;;
48215;SDS011;34005;48.844;10.098;2023-09-19T05:11:36;0.45;;;0.45;;
48215;SDS011;34005;48.844;10.098;2023-09-19T05:14:04;0.73;;;0.70;;
48215;SDS011;34005;48.844;10.098;2023-09-19T05:16:32;0.55;;;0.35;;
48215;SDS011;34005;48.844;10.098;2023-09-19T05:19:00;2.50;;;1.10;;
48215;SDS011;34005;48.844;10.098;2023-09-19T05:21:28;1.75;;;0.77;;
48215;SDS011;34005;48.844;10.098;2023-09-19T05:23:56;1.48;;;0.80;;
48215;SDS011;34005;48.844;10.098;2023-09-19T05:26:25;1.10;;;0.73;;
48215;SDS011;34005;48.844;10.098;2023-09-19T05:28:53;2.08;;;0.65;;
48215;SDS011;34005;48.844;10.098;2023-09-19T05:31:20;2.92;;;0.77;;
48215;SDS011;34005;48.844;10.098;2023-09-19T05:33:49;2.55;;;0.68;;
48215;SDS011;34005;48.844;10.098;2023-09-19T05:36:17;2.35;;;0.80;;
48215;SDS011;34005;48.844;10.098;2023-09-19T05:38:45;1.25;;;0.70;;
48215;SDS011;34005;48.844;10.098;2023-09-19T05:41:16;3.70;;;1.20;;
48215;SDS011;34005;48.844;10.098;2023-09-19T05:43:45;1.17;;;0.82;;
48215;SDS011;34005;48.844;10.098;2023-09-19T05:46:13;1.20;;;0.95;;
48215;SDS011;34005;48.844;10.098;2023-09-19T05:48:47;1.52;;;0.80;;
48215;SDS011;34005;48.844;10.098;2023-09-19T05:51:20;2.15;;;1.20;;
48215;SDS011;34005;48.844;10.098;2023-09-19T05:53:56;1.23;;;0.80;;
48215;SDS011;34005;48.844;10.098;2023-09-19T05:56:25;3.35;;;1.05;;
48215;SDS011;34005;48.844;10.098;2023-09-19T05:58:59;2.70;;;0.80;;
48215;SDS011;34005;48.844;10.098;2023-09-19T06:01:32;0.90;;;0.80;;
48215;SDS011;34005;48.844;10.098;2023-09-19T06:04:02;1.77;;;0.65;;
48215;SDS011;34005;48.844;10.098;2023-09-19T06:06:33;0.47;;;0.40;;
48215;SDS011;34005;48.844;10.098;2023-09-19T06:09:06;1.85;;;0.63;;
48215;SDS011;34005;48.844;10.098;2023-09-19T06:11:37;4.57;;;0.90;;
48215;SDS011;34005;48.844;10.098;2023-09-19T06:14:08;3.30;;;1.00;;
48215;SDS011;34005;48.844;10.098;2023-09-19T06:16:43;2.50;;;0.80;;
48215;SDS011;34005;48.844;10.098;2023-09-19T06:21:50;1.85;;;0.90;;
48215;SDS011;34005;48.844;10.098;2023-09-19T06:24:26;2.08;;;1.27;;
48215;SDS011;34005;48.844;10.098;2023-09-19T06:27:00;4.05;;;1.02;;
48215;SDS011;34005;48.844;10.098;2023-09-19T06:33:22;1.60;;;1.15;;
48215;SDS011;34005;48.844;10.098;2023-09-19T06:36:12;1.43;;;1.10;;
48215;SDS011;34005;48.844;10.098;2023-09-19T06:45:36;2.05;;;0.70;;
48215;SDS011;34005;48.844;10.098;2023-09-19T06:48:55;2.30;;;1.00;;
48215;SDS011;34005;48.844;10.098;2023-09-19T06:51:44;1.25;;;0.70;;
48215;SDS011;34005;48.844;10.098;2023-09-19T06:55:03;0.95;;;0.68;;
48215;SDS011;34005;48.844;10.098;2023-09-19T06:58:09;1.63;;;1.00;;
48215;SDS011;34005;48.844;10.098;2023-09-19T07:01:01;1.80;;;0.98;;
48215;SDS011;34005;48.844;10.098;2023-09-19T07:07:47;0.73;;;0.70;;
48215;SDS011;34005;48.844;10.098;2023-09-19T07:10:40;0.85;;;0.43;;
48215;SDS011;34005;48.844;10.098;2023-09-19T07:13:51;1.38;;;0.88;;
48215;SDS011;34005;48.844;10.098;2023-09-19T07:51:00;1.15;;;0.90;;
48215;SDS011;34005;48.844;10.098;2023-09-19T07:53:29;0.73;;;0.70;;
48215;SDS011;34005;48.844;10.098;2023-09-19T07:56:26;2.17;;;1.10;;
48215;SDS011;34005;48.844;10.098;2023-09-19T08:03:53;1.42;;;0.98;;
48215;SDS011;34005;48.844;10.098;2023-09-19T08:06:22;1.52;;;1.40;;
48215;SDS011;34005;48.844;10.098;2023-09-19T08:08:50;2.67;;;1.30;;
48215;SDS011;34005;48.844;10.098;2023-09-19T08:11:20;1.70;;;1.20;;
48215;SDS011;34005;48.844;10.098;2023-09-19T08:13:50;2.88;;;1.27;;
48215;SDS011;34005;48.844;10.098;2023-09-19T08:16:18;1.85;;;1.27;;
48215;SDS011;34005;48.844;10.098;2023-09-19T08:18:48;2.78;;;1.33;;
48215;SDS011;34005;48.844;10.098;2023-09-19T08:21:19;3.03;;;1.30;;
48215;SDS011;34005;48.844;10.098;2023-09-19T08:23:48;2.17;;;1.10;;
48215;SDS011;34005;48.844;10.098;2023-09-19T08:26:15;2.78;;;1.25;;
48215;SDS011;34005;48.844;10.098;2023-09-19T08:28:44;1.63;;;1.10;;
48215;SDS011;34005;48.844;10.098;2023-09-19T08:31:11;4.57;;;1.35;;
48215;SDS011;34005;48.844;10.098;2023-09-19T08:33:39;3.88;;;1.48;;
48215;SDS011;34005;48.844;10.098;2023-09-19T08:36:08;6.00;;;3.17;;
48215;SDS011;34005;48.844;10.098;2023-09-19T08:38:36;3.95;;;2.30;;
48215;SDS011;34005;48.844;10.098;2023-09-19T08:41:06;3.95;;;1.83;;
48215;SDS011;34005;48.844;10.098;2023-09-19T08:43:35;3.22;;;1.50;;
48215;SDS011;34005;48.844;10.098;2023-09-19T08:46:06;4.50;;;1.98;;
48215;SDS011;34005;48.844;10.098;2023-09-19T08:48:39;3.67;;;2.90;;
48215;SDS011;34005;48.844;10.098;2023-09-19T08:51:12;2.20;;;1.90;;
48215;SDS011;34005;48.844;10.098;2023-09-19T08:53:50;1.00;;;0.90;;
48215;SDS011;34005;48.844;10.098;2023-09-19T08:56:23;3.45;;;1.38;;
48215;SDS011;34005;48.844;10.098;2023-09-19T08:58:54;6.93;;;1.80;;
48215;SDS011;34005;48.844;10.098;2023-09-19T09:01:25;3.85;;;1.80;;
48215;SDS011;34005;48.844;10.098;2023-09-19T09:03:55;2.70;;;1.45;;
48215;SDS011;34005;48.844;10.098;2023-09-19T09:06:23;1.95;;;1.55;;
48215;SDS011;34005;48.844;10.098;2023-09-19T09:08:52;2.70;;;1.52;;
48215;SDS011;34005;48.844;10.098;2023-09-19T09:11:20;4.50;;;2.72;;
48215;SDS011;34005;48.844;10.098;2023-09-19T09:13:52;3.22;;;1.60;;
48215;SDS011;34005;48.844;10.098;2023-09-19T09:16:20;3.25;;;2.67;;
48215;SDS011;34005;48.844;10.098;2023-09-19T09:21:21;4.63;;;3.30;;
48215;SDS011;34005;48.844;10.098;2023-09-19T09:23:49;3.70;;;2.83;;
48215;SDS011;34005;48.844;10.098;2023-09-19T09:26:19;5.65;;;2.72;;
48215;SDS011;34005;48.844;10.098;2023-09-19T09:29:11;3.45;;;2.80;;
48215;SDS011;34005;48.844;10.098;2023-09-19T09:31:45;3.58;;;2.40;;
48215;SDS011;34005;48.844;10.098;2023-09-19T09:34:14;10.05;;;5.05;;
48215;SDS011;34005;48.844;10.098;2023-09-19T09:36:43;13.13;;;5.97;;
48215;SDS011;34005;48.844;10.098;2023-09-19T09:39:15;5.28;;;3.47;;
48215;SDS011;34005;48.844;10.098;2023-09-19T09:41:58;4.53;;;1.95;;
48215;SDS011;34005;48.844;10.098;2023-09-19T09:44:27;2.80;;;1.63;;
48215;SDS011;34005;48.844;10.098;2023-09-19T09:46:58;4.80;;;2.17;;
48215;SDS011;34005;48.844;10.098;2023-09-19T09:49:47;7.57;;;4.88;;
48215;SDS011;34005;48.844;10.098;2023-09-19T09:52:21;10.98;;;5.03;;
48215;SDS011;34005;48.844;10.098;2023-09-19T09:55:00;12.68;;;5.65;;
48215;SDS011;34005;48.844;10.098;2023-09-19T09:57:32;8.18;;;3.67;;
48215;SDS011;34005;48.844;10.098;2023-09-19T10:00:01;7.07;;;3.60;;
48215;SDS011;34005;48.844;10.098;2023-09-19T10:02:46;2.65;;;1.75;;
48215;SDS011;34005;48.844;10.098;2023-09-19T10:05:14;4.18;;;2.03;;
48215;SDS011;34005;48.844;10.098;2023-09-19T10:07:48;2.83;;;1.40;;
48215;SDS011;34005;48.844;10.098;2023-09-19T10:10:29;2.88;;;1.30;;
48215;SDS011;34005;48.844;10.098;2023-09-19T10:13:04;4.18;;;3.08;;
48215;SDS011;34005;48.844;10.098;2023-09-19T10:15:35;3.40;;;2.38;;
48215;SDS011;34005;48.844;10.098;2023-09-19T10:18:05;3.45;;;1.27;;
48215;SDS011;34005;48.844;10.098;2023-09-19T10:20:35;3.00;;;1.23;;
48215;SDS011;34005;48.844;10.098;2023-09-19T10:23:05;1.95;;;1.45;;
48215;SDS011;34005;48.844;10.098;2023-09-19T10:25:39;4.07;;;1.98;;
48215;SDS011;34005;48.844;10.098;2023-09-19T10:28:09;2.75;;;1.65;;
48215;SDS011;34005;48.844;10.098;2023-09-19T10:30:44;2.33;;;1.10;;
48215;SDS011;34005;48.844;10.098;2023-09-19T10:33:15;2.53;;;1.52;;
48215;SDS011;34005;48.844;10.098;2023-09-19T10:35:44;2.92;;;1.20;;
48215;SDS011;34005;48.844;10.098;2023-09-19T10:38:14;1.70;;;1.50;;
48215;SDS011;34005;48.844;10.098;2023-09-19T10:40:48;3.13;;;1.50;;
48215;SDS011;34005;48.844;10.098;2023-09-19T10:43:18;2.45;;;1.60;;
48215;SDS011;34005;48.844;10.098;2023-09-19T10:45:49;2.00;;;1.13;;
48215;SDS011;34005;48.844;10.098;2023-09-19T10:48:20;2.63;;;0.90;;
48215;SDS011;34005;48.844;10.098;2023-09-19T10:50:53;5.80;;;4.60;;
48215;SDS011;34005;48.844;10.098;2023-09-19T10:53:32;6.47;;;4.70;;
48215;SDS011;34005;48.844;10.098;2023-09-19T10:56:09;2.88;;;1.83;;
48215;SDS011;34005;48.844;10.098;2023-09-19T10:58:43;1.88;;;1.63;;
48215;SDS011;34005;48.844;10.098;2023-09-19T11:01:13;4.28;;;1.67;;
48215;SDS011;34005;48.844;10.098;2023-09-19T11:03:41;2.50;;;1.42;;
48215;SDS011;34005;48.844;10.098;2023-09-19T11:06:14;2.08;;;1.35;;
48215;SDS011;34005;48.844;10.098;2023-09-19T11:08:52;3.97;;;1.80;;
48215;SDS011;34005;48.844;10.098;2023-09-19T11:11:44;2.42;;;1.77;;
48215;SDS011;34005;48.844;10.098;2023-09-19T11:14:30;6.35;;;3.45;;
48215;SDS011;34005;48.844;10.098;2023-09-19T11:23:18;2.58;;;1.15;;
48215;SDS011;34005;48.844;10.098;2023-09-19T11:25:49;1.55;;;1.05;;
48215;SDS011;34005;48.844;10.098;2023-09-19T11:28:31;2.80;;;0.98;;
48215;SDS011;34005;48.844;10.098;2023-09-19T11:40:09;1.25;;;0.82;;
48215;SDS011;34005;48.844;10.098;2023-09-19T11:42:43;0.60;;;0.60;;
48215;SDS011;34005;48.844;10.098;2023-09-19T11:48:28;0.95;;;0.60;;
48215;SDS011;34005;48.844;10.098;2023-09-19T11:50:58;1.52;;;0.60;;
48215;SDS011;34005;48.844;10.098;2023-09-19T11:53:33;1.42;;;0.70;;
48215;SDS011;34005;48.844;10.098;2023-09-19T11:56:06;1.38;;;0.60;;
48215;SDS011;34005;48.844;10.098;2023-09-19T11:58:37;1.95;;;0.82;;
48215;SDS011;34005;48.844;10.098;2023-09-19T12:01:05;1.10;;;0.55;;
48215;SDS011;34005;48.844;10.098;2023-09-19T12:03:40;1.13;;;0.82;;
48215;SDS011;34005;48.844;10.098;2023-09-19T12:06:14;1.35;;;0.65;;
48215;SDS011;34005;48.844;10.098;2023-09-19T12:08:42;2.03;;;0.85;;
48215;SDS011;34005;48.844;10.098;2023-09-19T12:11:14;1.88;;;0.93;;
48215;SDS011;34005;48.844;10.098;2023-09-19T12:13:44;1.10;;;0.40;;
48215;SDS011;34005;48.844;10.098;2023-09-19T12:16:13;0.77;;;0.38;;
48215;SDS011;34005;48.844;10.098;2023-09-19T12:18:44;0.75;;;0.60;;
48215;SDS011;34005;48.844;10.098;2023-09-19T12:21:23;2.25;;;0.68;;
48215;SDS011;34005;48.844;10.098;2023-09-19T12:23:57;2.25;;;0.50;;
48215;SDS011;34005;48.844;10.098;2023-09-19T12:26:40;1.85;;;1.17;;
48215;SDS011;34005;48.844;10.098;2023-09-19T12:29:13;1.90;;;0.93;;
48215;SDS011;34005;48.844;10.098;2023-09-19T12:31:49;1.55;;;0.95;;
48215;SDS011;34005;48.844;10.098;2023-09-19T12:34:21;6.10;;;1.75;;
48215;SDS011;34005;48.844;10.098;2023-09-19T12:37:06;2.33;;;1.10;;
48215;SDS011;34005;48.844;10.098;2023-09-19T12:39:38;1.83;;;0.77;;
48215;SDS011;34005;48.844;10.098;2023-09-19T12:42:10;0.68;;;0.57;;
48215;SDS011;34005;48.844;10.098;2023-09-19T12:44:41;1.40;;;0.60;;
48215;SDS011;34005;48.844;10.098;2023-09-19T12:47:14;2.55;;;0.80;;
48215;SDS011;34005;48.844;10.098;2023-09-19T12:50:05;1.30;;;0.70;;
48215;SDS011;34005;48.844;10.098;2023-09-19T12:52:34;1.52;;;0.50;;
48215;SDS011;34005;48.844;10.098;2023-09-19T12:55:04;1.60;;;0.85;;
48215;SDS011;34005;48.844;10.098;2023-09-19T12:57:34;2.30;;;0.80;;
48215;SDS011;34005;48.844;10.098;2023-09-19T13:00:02;1.98;;;1.30;;
48215;SDS011;34005;48.844;10.098;2023-09-19T13:02:32;2.30;;;1.15;;
48215;SDS011;34005;48.844;10.098;2023-09-19T13:04:59;0.90;;;0.70;;
48215;SDS011;34005;48.844;10.098;2023-09-19T13:07:39;9.20;;;5.00;;
48215;SDS011;34005;48.844;10.098;2023-09-19T13:10:09;9.82;;;7.68;;
48215;SDS011;34005;48.844;10.098;2023-09-19T13:12:38;8.75;;;4.10;;
48215;SDS011;34005;48.844;10.098;2023-09-19T13:15:08;5.17;;;3.10;;
48215;SDS011;34005;48.844;10.098;2023-09-19T13:17:42;5.78;;;2.00;;
48215;SDS011;34005;48.844;10.098;2023-09-19T13:20:20;1.55;;;0.68;;
48215;SDS011;34005;48.844;10.098;2023-09-19T13:22:51;2.10;;;1.20;;
48215;SDS011;34005;48.844;10.098;2023-09-19T13:25:21;5.35;;;1.92;;
48215;SDS011;34005;48.844;10.098;2023-09-19T13:27:51;2.35;;;1.27;;
48215;SDS011;34005;48.844;10.098;2023-09-19T13:30:21;1.67;;;0.85;;
48215;SDS011;34005;48.844;10.098;2023-09-19T13:32:51;2.83;;;1.45;;
48215;SDS011;34005;48.844;10.098;2023-09-19T13:35:20;1.52;;;0.60;;
48215;SDS011;34005;48.844;10.098;2023-09-19T13:37:48;0.73;;;0.63;;
48215;SDS011;34005;48.844;10.098;2023-09-19T13:40:18;0.43;;;0.43;;
48215;SDS011;34005;48.844;10.098;2023-09-19T13:42:45;2.63;;;0.70;;
48215;SDS011;34005;48.844;10.098;2023-09-19T13:45:14;0.85;;;0.50;;
48215;SDS011;34005;48.844;10.098;2023-09-19T13:47:44;1.23;;;0.55;;
48215;SDS011;34005;48.844;10.098;2023-09-19T13:50:12;1.85;;;0.57;;
48215;SDS011;34005;48.844;10.098;2023-09-19T13:52:41;1.63;;;0.60;;
48215;SDS011;34005;48.844;10.098;2023-09-19T13:55:08;2.83;;;0.77;;
48215;SDS011;34005;48.844;10.098;2023-09-19T13:57:36;1.15;;;0.70;;
48215;SDS011;34005;48.844;10.098;2023-09-19T14:00:04;0.68;;;0.52;;
48215;SDS011;34005;48.844;10.098;2023-09-19T14:02:37;2.42;;;0.63;;
48215;SDS011;34005;48.844;10.098;2023-09-19T14:05:06;2.25;;;0.60;;
48215;SDS011;34005;48.844;10.098;2023-09-19T14:07:34;1.25;;;0.70;;
48215;SDS011;34005;48.844;10.098;2023-09-19T14:10:03;0.55;;;0.47;;
48215;SDS011;34005;48.844;10.098;2023-09-19T14:12:34;2.75;;;0.60;;
48215;SDS011;34005;48.844;10.098;2023-09-19T14:15:02;0.82;;;0.52;;
48215;SDS011;34005;48.844;10.098;2023-09-19T14:17:30;1.50;;;0.63;;
48215;SDS011;34005;48.844;10.098;2023-09-19T14:19:59;0.98;;;0.50;;
48215;SDS011;34005;48.844;10.098;2023-09-19T14:22:27;1.65;;;0.63;;
48215;SDS011;34005;48.844;10.098;2023-09-19T14:24:55;3.47;;;0.90;;
48215;SDS011;34005;48.844;10.098;2023-09-19T14:27:22;1.38;;;0.45;;
48215;SDS011;34005;48.844;10.098;2023-09-19T14:29:51;0.98;;;0.82;;
48215;SDS011;34005;48.844;10.098;2023-09-19T14:32:19;1.00;;;0.60;;
48215;SDS011;34005;48.844;10.098;2023-09-19T14:34:46;1.25;;;0.43;;
48215;SDS011;34005;48.844;10.098;2023-09-19T14:37:15;1.55;;;0.50;;
48215;SDS011;34005;48.844;10.098;2023-09-19T14:39:43;1.27;;;0.63;;
48215;SDS011;34005;48.844;10.098;2023-09-19T14:42:11;2.63;;;0.70;;
48215;SDS011;34005;48.844;10.098;2023-09-19T14:44:40;1.15;;;0.50;;
48215;SDS011;34005;48.844;10.098;2023-09-19T14:47:08;1.55;;;0.60;;
48215;SDS011;34005;48.844;10.098;2023-09-19T14:49:39;3.15;;;0.80;;
48215;SDS011;34005;48.844;10.098;2023-09-19T14:52:07;1.52;;;0.75;;
48215;SDS011;34005;48.844;10.098;2023-09-19T14:54:36;1.50;;;0.52;;
48215;SDS011;34005;48.844;10.098;2023-09-19T14:57:07;2.13;;;0.50;;
48215;SDS011;34005;48.844;10.098;2023-09-19T14:59:35;1.70;;;0.70;;
48215;SDS011;34005;48.844;10.098;2023-09-19T15:02:03;3.60;;;0.50;;
48215;SDS011;34005;48.844;10.098;2023-09-19T15:04:31;1.85;;;0.68;;
48215;SDS011;34005;48.844;10.098;2023-09-19T15:07:00;2.17;;;0.65;;
48215;SDS011;34005;48.844;10.098;2023-09-19T15:09:28;1.05;;;0.60;;
48215;SDS011;34005;48.844;10.098;2023-09-19T15:11:59;1.08;;;0.60;;
48215;SDS011;34005;48.844;10.098;2023-09-19T15:14:27;0.88;;;0.73;;
48215;SDS011;34005;48.844;10.098;2023-09-19T15:16:56;2.28;;;0.93;;
48215;SDS011;34005;48.844;10.098;2023-09-19T15:19:23;1.33;;;0.50;;
48215;SDS011;34005;48.844;10.098;2023-09-19T15:21:51;2.42;;;0.80;;
48215;SDS011;34005;48.844;10.098;2023-09-19T15:24:18;1.83;;;0.75;;
48215;SDS011;34005;48.844;10.098;2023-09-19T15:26:46;1.70;;;0.70;;
48215;SDS011;34005;48.844;10.098;2023-09-19T15:29:15;0.95;;;0.60;;
48215;SDS011;34005;48.844;10.098;2023-09-19T15:31:43;2.20;;;0.82;;
48215;SDS011;34005;48.844;10.098;2023-09-19T15:34:10;1.83;;;0.70;;
48215;SDS011;34005;48.844;10.098;2023-09-19T15:36:42;1.20;;;0.82;;
48215;SDS011;34005;48.844;10.098;2023-09-19T15:39:10;0.95;;;0.55;;
48215;SDS011;34005;48.844;10.098;2023-09-19T15:41:38;1.55;;;0.90;;
48215;SDS011;34005;48.844;10.098;2023-09-19T15:44:10;1.40;;;0.63;;
48215;SDS011;34005;48.844;10.098;2023-09-19T15:46:41;1.23;;;0.50;;
48215;SDS011;34005;48.844;10.098;2023-09-19T15:49:10;1.67;;;0.80;;
48215;SDS011;34005;48.844;10.098;2023-09-19T15:51:38;0.90;;;0.50;;
48215;SDS011;34005;48.844;10.098;2023-09-19T15:54:07;1.90;;;0.80;;
48215;SDS011;34005;48.844;10.098;2023-09-19T15:56:37;1.08;;;0.60;;
48215;SDS011;34005;48.844;10.098;2023-09-19T15:59:07;3.47;;;0.75;;
48215;SDS011;34005;48.844;10.098;2023-09-19T16:01:36;0.73;;;0.60;;
48215;SDS011;34005;48.844;10.098;2023-09-19T16:04:06;1.10;;;0.80;;
48215;SDS011;34005;48.844;10.098;2023-09-19T16:06:36;0.77;;;0.60;;
48215;SDS011;34005;48.844;10.098;2023-09-19T16:09:05;1.75;;;0.77;;
48215;SDS011;34005;48.844;10.098;2023-09-19T16:11:33;5.10;;;0.82;;
48215;SDS011;34005;48.844;10.098;2023-09-19T16:14:02;1.55;;;0.75;;
48215;SDS011;34005;48.844;10.098;2023-09-19T16:16:31;1.58;;;0.70;;
48215;SDS011;34005;48.844;10.098;2023-09-19T16:19:00;1.52;;;0.63;;
48215;SDS011;34005;48.844;10.098;2023-09-19T16:21:32;1.08;;;0.88;;